sensor_id;sensor_type;location;lat;lon;timestamp;P1;durP1;ratioP1;P2;durP2;ratioP2
74593;SDS011;63097;51.872;4.460;2023-08-21T00:01:04;11.88;;;2.17;;
74593;SDS011;63097;51.872;4.460;2023-08-21T00:03:29;7.72;;;1.80;;
74593;SDS011;63097;51.872;4.460;2023-08-21T00:05:55;14.30;;;2.13;;
74593;SDS011;63097;51.872;4.460;2023-08-21T00:08:20;10.07;;;2.28;;
74593;SDS011;63097;51.872;4.460;2023-08-21T00:10:45;8.27;;;1.63;;
74593;SDS011;63097;51.872;4.460;2023-08-21T00:13:10;10.52;;;1.85;;
74593;SDS011;63097;51.872;4.460;2023-08-21T00:15:37;9.65;;;1.88;;
74593;SDS011;63097;51.872;4.460;2023-08-21T00:18:03;16.13;;;1.70;;
74593;SDS011;63097;51.872;4.460;2023-08-21T00:20:28;14.48;;;2.63;;
74593;SDS011;63097;51.872;4.460;2023-08-21T00:22:54;13.63;;;1.80;;
74593;SDS011;63097;51.872;4.460;2023-08-21T00:25:20;8.65;;;1.88;;
74593;SDS011;63097;51.872;4.460;2023-08-21T00:27:46;9.88;;;1.60;;
74593;SDS011;63097;51.872;4.460;2023-08-21T00:30:11;14.55;;;1.70;;
74593;SDS011;63097;51.872;4.460;2023-08-21T00:32:37;17.27;;;2.28;;
74593;SDS011;63097;51.872;4.460;2023-08-21T00:35:02;8.88;;;1.63;;
74593;SDS011;63097;51.872;4.460;2023-08-21T00:37:28;9.63;;;1.70;;
74593;SDS011;63097;51.872;4.460;2023-08-21T00:39:53;12.45;;;2.03;;
74593;SDS011;63097;51.872;4.460;2023-08-21T00:42:18;9.55;;;1.63;;
74593;SDS011;63097;51.872;4.460;2023-08-21T00:44:43;11.80;;;1.92;;
74593;SDS011;63097;51.872;4.460;2023-08-21T00:47:09;11.93;;;2.05;;
74593;SDS011;63097;51.872;4.460;2023-08-21T00:49:34;12.65;;;1.70;;
74593;SDS011;63097;51.872;4.460;2023-08-21T00:51:59;8.85;;;2.00;;
74593;SDS011;63097;51.872;4.460;2023-08-21T00:54:26;10.18;;;1.90;;
74593;SDS011;63097;51.872;4.460;2023-08-21T00:56:51;15.40;;;1.85;;
74593;SDS011;63097;51.872;4.460;2023-08-21T00:59:16;8.55;;;1.83;;
74593;SDS011;63097;51.872;4.460;2023-08-21T01:01:42;10.70;;;1.88;;
74593;SDS011;63097;51.872;4.460;2023-08-21T01:04:07;9.10;;;1.88;;
74593;SDS011;63097;51.872;4.460;2023-08-21T01:06:33;7.30;;;1.80;;
74593;SDS011;63097;51.872;4.460;2023-08-21T01:09:08;8.18;;;1.60;;
74593;SDS011;63097;51.872;4.460;2023-08-21T01:16:59;17.70;;;2.15;;
74593;SDS011;63097;51.872;4.460;2023-08-21T01:19:31;14.02;;;2.03;;
74593;SDS011;63097;51.872;4.460;2023-08-21T01:22:01;13.85;;;1.63;;
74593;SDS011;63097;51.872;4.460;2023-08-21T01:24:26;7.07;;;1.60;;
74593;SDS011;63097;51.872;4.460;2023-08-21T01:26:52;7.10;;;1.33;;
74593;SDS011;63097;51.872;4.460;2023-08-21T01:29:17;17.60;;;2.15;;
74593;SDS011;63097;51.872;4.460;2023-08-21T01:31:43;8.18;;;1.75;;
74593;SDS011;63097;51.872;4.460;2023-08-21T01:34:13;13.05;;;1.50;;
74593;SDS011;63097;51.872;4.460;2023-08-21T01:36:39;12.50;;;1.85;;
74593;SDS011;63097;51.872;4.460;2023-08-21T01:39:05;8.27;;;2.13;;
74593;SDS011;63097;51.872;4.460;2023-08-21T01:41:31;6.88;;;1.45;;
74593;SDS011;63097;51.872;4.460;2023-08-21T01:43:56;7.15;;;1.40;;
74593;SDS011;63097;51.872;4.460;2023-08-21T01:46:21;12.05;;;1.95;;
74593;SDS011;63097;51.872;4.460;2023-08-21T01:48:46;12.55;;;1.75;;
74593;SDS011;63097;51.872;4.460;2023-08-21T01:51:12;9.88;;;2.55;;
74593;SDS011;63097;51.872;4.460;2023-08-21T01:53:37;11.75;;;2.08;;
74593;SDS011;63097;51.872;4.460;2023-08-21T01:56:02;13.35;;;1.77;;
74593;SDS011;63097;51.872;4.460;2023-08-21T01:58:28;7.90;;;1.65;;
74593;SDS011;63097;51.872;4.460;2023-08-21T02:00:53;16.17;;;1.95;;
74593;SDS011;63097;51.872;4.460;2023-08-21T02:03:18;6.72;;;1.27;;
74593;SDS011;63097;51.872;4.460;2023-08-21T02:05:44;13.32;;;1.60;;
74593;SDS011;63097;51.872;4.460;2023-08-21T02:08:11;10.02;;;1.83;;
74593;SDS011;63097;51.872;4.460;2023-08-21T02:10:46;11.35;;;1.83;;
74593;SDS011;63097;51.872;4.460;2023-08-21T02:13:12;11.65;;;1.40;;
74593;SDS011;63097;51.872;4.460;2023-08-21T02:15:38;11.48;;;1.70;;
74593;SDS011;63097;51.872;4.460;2023-08-21T02:18:05;9.27;;;1.52;;
74593;SDS011;63097;51.872;4.460;2023-08-21T02:20:30;9.35;;;1.80;;
74593;SDS011;63097;51.872;4.460;2023-08-21T02:22:55;13.13;;;1.42;;
74593;SDS011;63097;51.872;4.460;2023-08-21T02:25:20;16.17;;;2.17;;
74593;SDS011;63097;51.872;4.460;2023-08-21T02:27:46;10.73;;;1.58;;
74593;SDS011;63097;51.872;4.460;2023-08-21T02:30:11;6.85;;;2.10;;
74593;SDS011;63097;51.872;4.460;2023-08-21T02:32:36;10.85;;;1.50;;
74593;SDS011;63097;51.872;4.460;2023-08-21T02:35:02;8.93;;;1.90;;
74593;SDS011;63097;51.872;4.460;2023-08-21T02:37:27;10.98;;;1.58;;
74593;SDS011;63097;51.872;4.460;2023-08-21T02:39:52;12.98;;;1.75;;
74593;SDS011;63097;51.872;4.460;2023-08-21T02:42:18;6.68;;;1.50;;
74593;SDS011;63097;51.872;4.460;2023-08-21T02:44:43;7.30;;;1.63;;
74593;SDS011;63097;51.872;4.460;2023-08-21T02:47:08;4.63;;;1.33;;
74593;SDS011;63097;51.872;4.460;2023-08-21T02:49:33;10.68;;;1.67;;
74593;SDS011;63097;51.872;4.460;2023-08-21T02:51:59;10.82;;;1.60;;
74593;SDS011;63097;51.872;4.460;2023-08-21T02:54:24;13.93;;;2.30;;
74593;SDS011;63097;51.872;4.460;2023-08-21T02:56:50;5.97;;;1.40;;
74593;SDS011;63097;51.872;4.460;2023-08-21T02:59:16;10.68;;;1.60;;
74593;SDS011;63097;51.872;4.460;2023-08-21T03:01:41;8.40;;;1.40;;
74593;SDS011;63097;51.872;4.460;2023-08-21T03:04:06;8.52;;;1.33;;
74593;SDS011;63097;51.872;4.460;2023-08-21T03:06:32;10.50;;;2.25;;
74593;SDS011;63097;51.872;4.460;2023-08-21T03:08:57;7.95;;;1.45;;
74593;SDS011;63097;51.872;4.460;2023-08-21T03:11:22;7.30;;;1.48;;
74593;SDS011;63097;51.872;4.460;2023-08-21T03:13:47;15.68;;;1.63;;
74593;SDS011;63097;51.872;4.460;2023-08-21T03:16:13;8.70;;;1.60;;
74593;SDS011;63097;51.872;4.460;2023-08-21T03:18:53;7.88;;;1.50;;
74593;SDS011;63097;51.872;4.460;2023-08-21T03:21:22;12.43;;;1.90;;
74593;SDS011;63097;51.872;4.460;2023-08-21T03:23:53;13.10;;;1.48;;
74593;SDS011;63097;51.872;4.460;2023-08-21T03:28:47;10.43;;;1.83;;
74593;SDS011;63097;51.872;4.460;2023-08-21T03:31:13;6.25;;;1.50;;
74593;SDS011;63097;51.872;4.460;2023-08-21T03:33:38;6.43;;;1.55;;
74593;SDS011;63097;51.872;4.460;2023-08-21T03:36:04;8.45;;;1.60;;
74593;SDS011;63097;51.872;4.460;2023-08-21T03:38:29;12.23;;;1.73;;
74593;SDS011;63097;51.872;4.460;2023-08-21T03:40:54;10.10;;;1.50;;
74593;SDS011;63097;51.872;4.460;2023-08-21T03:43:20;10.50;;;2.10;;
74593;SDS011;63097;51.872;4.460;2023-08-21T03:45:45;9.30;;;1.67;;
74593;SDS011;63097;51.872;4.460;2023-08-21T03:48:10;6.63;;;1.92;;
74593;SDS011;63097;51.872;4.460;2023-08-21T03:50:36;14.43;;;2.45;;
74593;SDS011;63097;51.872;4.460;2023-08-21T03:53:01;9.15;;;1.52;;
74593;SDS011;63097;51.872;4.460;2023-08-21T03:55:26;7.70;;;1.98;;
74593;SDS011;63097;51.872;4.460;2023-08-21T03:57:51;13.40;;;1.77;;
74593;SDS011;63097;51.872;4.460;2023-08-21T04:00:17;8.85;;;2.17;;
74593;SDS011;63097;51.872;4.460;2023-08-21T04:02:42;9.60;;;1.73;;
74593;SDS011;63097;51.872;4.460;2023-08-21T04:05:07;12.73;;;2.67;;
74593;SDS011;63097;51.872;4.460;2023-08-21T04:07:33;12.23;;;1.90;;
74593;SDS011;63097;51.872;4.460;2023-08-21T04:09:58;13.70;;;1.42;;
74593;SDS011;63097;51.872;4.460;2023-08-21T04:12:23;9.10;;;1.90;;
74593;SDS011;63097;51.872;4.460;2023-08-21T04:14:48;17.73;;;1.92;;
74593;SDS011;63097;51.872;4.460;2023-08-21T04:17:14;12.65;;;1.95;;
74593;SDS011;63097;51.872;4.460;2023-08-21T04:19:39;10.40;;;1.95;;
74593;SDS011;63097;51.872;4.460;2023-08-21T04:22:04;12.95;;;1.60;;
74593;SDS011;63097;51.872;4.460;2023-08-21T04:24:30;7.75;;;1.70;;
74593;SDS011;63097;51.872;4.460;2023-08-21T04:26:55;11.90;;;2.05;;
74593;SDS011;63097;51.872;4.460;2023-08-21T04:29:20;10.65;;;1.90;;
74593;SDS011;63097;51.872;4.460;2023-08-21T04:31:45;7.82;;;1.55;;
74593;SDS011;63097;51.872;4.460;2023-08-21T04:34:11;6.70;;;1.63;;
74593;SDS011;63097;51.872;4.460;2023-08-21T04:36:36;13.25;;;1.80;;
74593;SDS011;63097;51.872;4.460;2023-08-21T04:39:01;7.40;;;1.65;;
74593;SDS011;63097;51.872;4.460;2023-08-21T04:41:28;9.80;;;1.92;;
74593;SDS011;63097;51.872;4.460;2023-08-21T04:43:53;10.68;;;1.80;;
74593;SDS011;63097;51.872;4.460;2023-08-21T04:46:21;11.13;;;1.85;;
74593;SDS011;63097;51.872;4.460;2023-08-21T04:48:47;9.75;;;1.70;;
74593;SDS011;63097;51.872;4.460;2023-08-21T04:51:13;11.02;;;1.52;;
74593;SDS011;63097;51.872;4.460;2023-08-21T04:53:38;10.95;;;1.65;;
74593;SDS011;63097;51.872;4.460;2023-08-21T04:56:04;11.40;;;1.90;;
74593;SDS011;63097;51.872;4.460;2023-08-21T04:58:29;10.82;;;1.92;;
74593;SDS011;63097;51.872;4.460;2023-08-21T05:00:54;15.93;;;2.40;;
74593;SDS011;63097;51.872;4.460;2023-08-21T05:03:20;14.73;;;1.60;;
74593;SDS011;63097;51.872;4.460;2023-08-21T05:05:52;8.45;;;2.20;;
74593;SDS011;63097;51.872;4.460;2023-08-21T05:08:20;18.00;;;1.90;;
74593;SDS011;63097;51.872;4.460;2023-08-21T05:10:51;18.40;;;2.15;;
74593;SDS011;63097;51.872;4.460;2023-08-21T05:13:21;9.50;;;1.70;;
74593;SDS011;63097;51.872;4.460;2023-08-21T05:15:51;14.30;;;1.87;;
74593;SDS011;63097;51.872;4.460;2023-08-21T05:18:17;11.43;;;1.88;;
74593;SDS011;63097;51.872;4.460;2023-08-21T05:20:42;10.07;;;2.13;;
74593;SDS011;63097;51.872;4.460;2023-08-21T05:23:07;14.23;;;2.42;;
74593;SDS011;63097;51.872;4.460;2023-08-21T05:25:33;19.35;;;2.50;;
74593;SDS011;63097;51.872;4.460;2023-08-21T05:27:58;9.63;;;2.53;;
74593;SDS011;63097;51.872;4.460;2023-08-21T05:30:23;8.60;;;2.15;;
74593;SDS011;63097;51.872;4.460;2023-08-21T05:32:48;14.93;;;2.35;;
74593;SDS011;63097;51.872;4.460;2023-08-21T05:35:14;9.40;;;1.83;;
74593;SDS011;63097;51.872;4.460;2023-08-21T05:37:39;13.65;;;2.00;;
74593;SDS011;63097;51.872;4.460;2023-08-21T05:40:04;12.15;;;2.25;;
74593;SDS011;63097;51.872;4.460;2023-08-21T05:42:30;11.30;;;2.28;;
74593;SDS011;63097;51.872;4.460;2023-08-21T05:44:55;13.70;;;2.33;;
74593;SDS011;63097;51.872;4.460;2023-08-21T05:47:21;15.90;;;2.72;;
74593;SDS011;63097;51.872;4.460;2023-08-21T05:49:46;21.63;;;2.40;;
74593;SDS011;63097;51.872;4.460;2023-08-21T05:52:11;15.80;;;2.70;;
74593;SDS011;63097;51.872;4.460;2023-08-21T05:54:36;16.30;;;2.88;;
74593;SDS011;63097;51.872;4.460;2023-08-21T05:57:02;7.72;;;2.03;;
74593;SDS011;63097;51.872;4.460;2023-08-21T05:59:29;14.85;;;2.60;;
74593;SDS011;63097;51.872;4.460;2023-08-21T06:01:55;15.85;;;2.60;;
74593;SDS011;63097;51.872;4.460;2023-08-21T06:04:21;14.25;;;2.40;;
74593;SDS011;63097;51.872;4.460;2023-08-21T06:06:46;14.48;;;2.38;;
74593;SDS011;63097;51.872;4.460;2023-08-21T06:09:11;19.73;;;2.67;;
74593;SDS011;63097;51.872;4.460;2023-08-21T06:11:37;11.68;;;2.60;;
74593;SDS011;63097;51.872;4.460;2023-08-21T06:14:02;10.23;;;2.42;;
74593;SDS011;63097;51.872;4.460;2023-08-21T06:16:28;14.20;;;2.60;;
74593;SDS011;63097;51.872;4.460;2023-08-21T06:18:53;15.50;;;2.65;;
74593;SDS011;63097;51.872;4.460;2023-08-21T06:21:19;16.85;;;2.30;;
74593;SDS011;63097;51.872;4.460;2023-08-21T06:23:44;16.58;;;2.30;;
74593;SDS011;63097;51.872;4.460;2023-08-21T06:26:11;10.68;;;2.33;;
74593;SDS011;63097;51.872;4.460;2023-08-21T06:28:37;19.10;;;2.67;;
74593;SDS011;63097;51.872;4.460;2023-08-21T06:31:02;15.05;;;2.10;;
74593;SDS011;63097;51.872;4.460;2023-08-21T06:33:28;13.70;;;2.05;;
74593;SDS011;63097;51.872;4.460;2023-08-21T06:35:53;9.95;;;2.28;;
74593;SDS011;63097;51.872;4.460;2023-08-21T06:38:18;14.02;;;2.58;;
74593;SDS011;63097;51.872;4.460;2023-08-21T06:40:44;11.53;;;2.13;;
74593;SDS011;63097;51.872;4.460;2023-08-21T06:43:10;14.48;;;2.10;;
74593;SDS011;63097;51.872;4.460;2023-08-21T06:45:35;13.07;;;2.40;;
74593;SDS011;63097;51.872;4.460;2023-08-21T06:48:01;13.10;;;2.00;;
74593;SDS011;63097;51.872;4.460;2023-08-21T06:50:26;18.17;;;2.70;;
74593;SDS011;63097;51.872;4.460;2023-08-21T06:52:51;9.80;;;1.77;;
74593;SDS011;63097;51.872;4.460;2023-08-21T06:55:17;15.57;;;2.00;;
74593;SDS011;63097;51.872;4.460;2023-08-21T06:57:42;14.77;;;1.70;;
74593;SDS011;63097;51.872;4.460;2023-08-21T07:00:07;17.10;;;2.50;;
74593;SDS011;63097;51.872;4.460;2023-08-21T07:02:33;9.95;;;2.05;;
74593;SDS011;63097;51.872;4.460;2023-08-21T07:04:58;19.40;;;2.73;;
74593;SDS011;63097;51.872;4.460;2023-08-21T07:07:23;17.13;;;1.90;;
74593;SDS011;63097;51.872;4.460;2023-08-21T07:09:49;14.33;;;2.23;;
74593;SDS011;63097;51.872;4.460;2023-08-21T07:12:15;18.58;;;2.08;;
74593;SDS011;63097;51.872;4.460;2023-08-21T07:14:40;19.80;;;2.47;;
74593;SDS011;63097;51.872;4.460;2023-08-21T07:17:05;17.52;;;2.47;;
74593;SDS011;63097;51.872;4.460;2023-08-21T07:19:31;8.63;;;1.63;;
74593;SDS011;63097;51.872;4.460;2023-08-21T07:21:56;14.47;;;1.77;;
74593;SDS011;63097;51.872;4.460;2023-08-21T07:24:21;12.27;;;1.50;;
74593;SDS011;63097;51.872;4.460;2023-08-21T07:26:46;14.20;;;1.87;;
74593;SDS011;63097;51.872;4.460;2023-08-21T07:29:11;22.03;;;2.43;;
74593;SDS011;63097;51.872;4.460;2023-08-21T07:31:37;22.23;;;2.70;;
74593;SDS011;63097;51.872;4.460;2023-08-21T07:34:02;16.20;;;1.97;;
74593;SDS011;63097;51.872;4.460;2023-08-21T07:36:27;11.10;;;1.77;;
74593;SDS011;63097;51.872;4.460;2023-08-21T07:38:52;17.97;;;1.63;;
74593;SDS011;63097;51.872;4.460;2023-08-21T07:41:18;15.37;;;1.50;;
74593;SDS011;63097;51.872;4.460;2023-08-21T07:43:43;15.40;;;1.77;;
74593;SDS011;63097;51.872;4.460;2023-08-21T07:46:09;13.20;;;1.58;;
74593;SDS011;63097;51.872;4.460;2023-08-21T07:48:36;14.35;;;1.80;;
74593;SDS011;63097;51.872;4.460;2023-08-21T07:51:01;10.20;;;1.57;;
74593;SDS011;63097;51.872;4.460;2023-08-21T07:53:27;14.30;;;1.65;;
74593;SDS011;63097;51.872;4.460;2023-08-21T07:55:52;15.38;;;1.98;;
74593;SDS011;63097;51.872;4.460;2023-08-21T07:58:18;15.25;;;2.03;;
74593;SDS011;63097;51.872;4.460;2023-08-21T08:00:43;23.23;;;2.50;;
74593;SDS011;63097;51.872;4.460;2023-08-21T08:03:09;11.73;;;1.40;;
74593;SDS011;63097;51.872;4.460;2023-08-21T08:05:35;9.80;;;1.40;;
74593;SDS011;63097;51.872;4.460;2023-08-21T08:08:00;6.23;;;1.10;;
74593;SDS011;63097;51.872;4.460;2023-08-21T08:10:25;15.23;;;1.63;;
74593;SDS011;63097;51.872;4.460;2023-08-21T08:12:51;9.88;;;1.05;;
74593;SDS011;63097;51.872;4.460;2023-08-21T08:15:17;9.30;;;1.30;;
74593;SDS011;63097;51.872;4.460;2023-08-21T08:17:43;11.48;;;1.50;;
74593;SDS011;63097;51.872;4.460;2023-08-21T08:20:09;14.15;;;1.80;;
74593;SDS011;63097;51.872;4.460;2023-08-21T08:22:34;10.50;;;1.35;;
74593;SDS011;63097;51.872;4.460;2023-08-21T08:24:59;10.27;;;1.37;;
74593;SDS011;63097;51.872;4.460;2023-08-21T08:27:25;19.97;;;2.23;;
74593;SDS011;63097;51.872;4.460;2023-08-21T08:29:50;12.80;;;1.60;;
74593;SDS011;63097;51.872;4.460;2023-08-21T08:32:15;13.77;;;2.07;;
74593;SDS011;63097;51.872;4.460;2023-08-21T08:34:40;16.67;;;1.73;;
74593;SDS011;63097;51.872;4.460;2023-08-21T08:37:06;19.27;;;2.07;;
74593;SDS011;63097;51.872;4.460;2023-08-21T08:39:31;19.87;;;2.37;;
74593;SDS011;63097;51.872;4.460;2023-08-21T08:41:58;6.30;;;1.20;;
74593;SDS011;63097;51.872;4.460;2023-08-21T08:44:27;9.05;;;1.33;;
74593;SDS011;63097;51.872;4.460;2023-08-21T08:46:54;10.57;;;1.27;;
74593;SDS011;63097;51.872;4.460;2023-08-21T08:49:20;11.77;;;1.52;;
74593;SDS011;63097;51.872;4.460;2023-08-21T08:51:48;10.38;;;1.38;;
74593;SDS011;63097;51.872;4.460;2023-08-21T08:54:14;15.55;;;1.50;;
74593;SDS011;63097;51.872;4.460;2023-08-21T08:56:41;14.85;;;1.98;;
74593;SDS011;63097;51.872;4.460;2023-08-21T08:59:07;9.13;;;1.30;;
74593;SDS011;63097;51.872;4.460;2023-08-21T09:01:33;12.48;;;1.55;;
74593;SDS011;63097;51.872;4.460;2023-08-21T09:03:58;9.70;;;1.27;;
74593;SDS011;63097;51.872;4.460;2023-08-21T09:06:23;15.55;;;1.75;;
74593;SDS011;63097;51.872;4.460;2023-08-21T09:08:55;7.70;;;1.40;;
74593;SDS011;63097;51.872;4.460;2023-08-21T09:11:22;9.50;;;1.27;;
74593;SDS011;63097;51.872;4.460;2023-08-21T09:13:52;8.68;;;1.50;;
74593;SDS011;63097;51.872;4.460;2023-08-21T09:16:19;8.05;;;1.35;;
74593;SDS011;63097;51.872;4.460;2023-08-21T09:18:48;13.85;;;1.73;;
74593;SDS011;63097;51.872;4.460;2023-08-21T09:21:21;7.88;;;1.25;;
74593;SDS011;63097;51.872;4.460;2023-08-21T09:23:47;9.60;;;1.73;;
74593;SDS011;63097;51.872;4.460;2023-08-21T09:26:22;13.68;;;1.42;;
74593;SDS011;63097;51.872;4.460;2023-08-21T09:28:48;7.97;;;1.25;;
74593;SDS011;63097;51.872;4.460;2023-08-21T09:31:14;11.45;;;1.38;;
74593;SDS011;63097;51.872;4.460;2023-08-21T09:33:40;13.32;;;1.40;;
74593;SDS011;63097;51.872;4.460;2023-08-21T09:36:06;9.85;;;1.30;;
74593;SDS011;63097;51.872;4.460;2023-08-21T09:38:33;11.27;;;1.90;;
74593;SDS011;63097;51.872;4.460;2023-08-21T09:40:59;6.72;;;1.33;;
74593;SDS011;63097;51.872;4.460;2023-08-21T09:43:24;13.40;;;2.10;;
74593;SDS011;63097;51.872;4.460;2023-08-21T09:45:50;9.88;;;1.27;;
74593;SDS011;63097;51.872;4.460;2023-08-21T09:48:17;11.60;;;1.60;;
74593;SDS011;63097;51.872;4.460;2023-08-21T09:50:43;5.25;;;0.85;;
74593;SDS011;63097;51.872;4.460;2023-08-21T09:53:09;12.68;;;1.42;;
74593;SDS011;63097;51.872;4.460;2023-08-21T09:55:36;10.38;;;1.60;;
74593;SDS011;63097;51.872;4.460;2023-08-21T09:58:03;12.98;;;1.55;;
74593;SDS011;63097;51.872;4.460;2023-08-21T10:00:29;8.30;;;1.60;;
74593;SDS011;63097;51.872;4.460;2023-08-21T10:02:55;12.48;;;1.17;;
74593;SDS011;63097;51.872;4.460;2023-08-21T10:05:28;9.18;;;1.30;;
74593;SDS011;63097;51.872;4.460;2023-08-21T10:07:57;7.78;;;1.10;;
74593;SDS011;63097;51.872;4.460;2023-08-21T10:10:25;7.97;;;1.02;;
74593;SDS011;63097;51.872;4.460;2023-08-21T10:12:51;10.18;;;1.20;;
74593;SDS011;63097;51.872;4.460;2023-08-21T10:15:16;8.13;;;1.07;;
74593;SDS011;63097;51.872;4.460;2023-08-21T10:17:42;8.38;;;1.13;;
74593;SDS011;63097;51.872;4.460;2023-08-21T10:20:08;3.72;;;0.80;;
74593;SDS011;63097;51.872;4.460;2023-08-21T10:22:48;8.20;;;1.42;;
74593;SDS011;63097;51.872;4.460;2023-08-21T10:25:17;7.93;;;1.35;;
74593;SDS011;63097;51.872;4.460;2023-08-21T10:27:44;8.85;;;1.05;;
74593;SDS011;63097;51.872;4.460;2023-08-21T10:30:14;9.27;;;1.35;;
74593;SDS011;63097;51.872;4.460;2023-08-21T10:32:47;5.65;;;1.05;;
74593;SDS011;63097;51.872;4.460;2023-08-21T10:35:17;8.45;;;0.93;;
74593;SDS011;63097;51.872;4.460;2023-08-21T10:38:19;5.50;;;1.13;;
74593;SDS011;63097;51.872;4.460;2023-08-21T10:41:03;10.88;;;1.40;;
74593;SDS011;63097;51.872;4.460;2023-08-21T10:46:05;8.75;;;1.20;;
74593;SDS011;63097;51.872;4.460;2023-08-21T10:48:31;4.50;;;1.02;;
74593;SDS011;63097;51.872;4.460;2023-08-21T10:50:57;6.50;;;1.10;;
74593;SDS011;63097;51.872;4.460;2023-08-21T10:53:26;13.35;;;1.20;;
74593;SDS011;63097;51.872;4.460;2023-08-21T10:55:52;7.30;;;1.25;;
74593;SDS011;63097;51.872;4.460;2023-08-21T10:58:19;6.75;;;1.23;;
74593;SDS011;63097;51.872;4.460;2023-08-21T11:00:45;6.57;;;1.10;;
74593;SDS011;63097;51.872;4.460;2023-08-21T11:03:10;8.60;;;1.02;;
74593;SDS011;63097;51.872;4.460;2023-08-21T11:05:36;11.47;;;1.03;;
74593;SDS011;63097;51.872;4.460;2023-08-21T11:08:01;8.30;;;1.20;;
74593;SDS011;63097;51.872;4.460;2023-08-21T11:10:29;11.52;;;1.00;;
74593;SDS011;63097;51.872;4.460;2023-08-21T11:12:56;6.57;;;1.00;;
74593;SDS011;63097;51.872;4.460;2023-08-21T11:15:24;4.32;;;0.70;;
74593;SDS011;63097;51.872;4.460;2023-08-21T11:18:00;7.15;;;0.98;;
74593;SDS011;63097;51.872;4.460;2023-08-21T11:20:27;8.55;;;1.10;;
74593;SDS011;63097;51.872;4.460;2023-08-21T11:22:56;7.38;;;0.90;;
74593;SDS011;63097;51.872;4.460;2023-08-21T11:25:22;7.78;;;1.00;;
74593;SDS011;63097;51.872;4.460;2023-08-21T11:27:48;3.38;;;0.90;;
74593;SDS011;63097;51.872;4.460;2023-08-21T11:30:13;8.68;;;0.98;;
74593;SDS011;63097;51.872;4.460;2023-08-21T11:32:38;11.95;;;1.08;;
74593;SDS011;63097;51.872;4.460;2023-08-21T11:35:04;8.30;;;1.05;;
74593;SDS011;63097;51.872;4.460;2023-08-21T11:37:29;5.95;;;0.93;;
74593;SDS011;63097;51.872;4.460;2023-08-21T11:39:58;8.83;;;0.97;;
74593;SDS011;63097;51.872;4.460;2023-08-21T11:42:30;15.68;;;1.13;;
74593;SDS011;63097;51.872;4.460;2023-08-21T11:44:56;3.97;;;0.80;;
74593;SDS011;63097;51.872;4.460;2023-08-21T11:47:23;9.23;;;1.33;;
74593;SDS011;63097;51.872;4.460;2023-08-21T11:49:54;7.07;;;1.05;;
74593;SDS011;63097;51.872;4.460;2023-08-21T11:52:20;4.90;;;0.85;;
74593;SDS011;63097;51.872;4.460;2023-08-21T11:54:47;6.38;;;0.88;;
74593;SDS011;63097;51.872;4.460;2023-08-21T11:57:14;7.15;;;0.75;;
74593;SDS011;63097;51.872;4.460;2023-08-21T11:59:40;5.20;;;0.80;;
74593;SDS011;63097;51.872;4.460;2023-08-21T12:02:09;3.88;;;0.90;;
74593;SDS011;63097;51.872;4.460;2023-08-21T12:04:38;5.80;;;0.70;;
74593;SDS011;63097;51.872;4.460;2023-08-21T12:07:03;7.33;;;1.00;;
74593;SDS011;63097;51.872;4.460;2023-08-21T12:09:29;7.97;;;1.53;;
74593;SDS011;63097;51.872;4.460;2023-08-21T12:11:54;8.53;;;1.03;;
74593;SDS011;63097;51.872;4.460;2023-08-21T12:14:19;10.93;;;1.20;;
74593;SDS011;63097;51.872;4.460;2023-08-21T12:16:45;4.27;;;0.80;;
74593;SDS011;63097;51.872;4.460;2023-08-21T12:19:10;7.75;;;0.93;;
74593;SDS011;63097;51.872;4.460;2023-08-21T12:21:36;11.43;;;1.20;;
74593;SDS011;63097;51.872;4.460;2023-08-21T12:24:01;4.10;;;0.90;;
74593;SDS011;63097;51.872;4.460;2023-08-21T12:26:26;2.37;;;0.70;;
74593;SDS011;63097;51.872;4.460;2023-08-21T12:28:52;5.73;;;0.90;;
74593;SDS011;63097;51.872;4.460;2023-08-21T12:31:17;6.53;;;0.83;;
74593;SDS011;63097;51.872;4.460;2023-08-21T12:33:42;5.20;;;0.70;;
74593;SDS011;63097;51.872;4.460;2023-08-21T12:36:07;5.90;;;0.73;;
74593;SDS011;63097;51.872;4.460;2023-08-21T12:38:33;7.57;;;0.90;;
74593;SDS011;63097;51.872;4.460;2023-08-21T12:40:58;4.77;;;1.00;;
74593;SDS011;63097;51.872;4.460;2023-08-21T12:43:23;9.77;;;0.90;;
74593;SDS011;63097;51.872;4.460;2023-08-21T12:45:49;7.47;;;1.00;;
74593;SDS011;63097;51.872;4.460;2023-08-21T12:48:14;6.45;;;0.93;;
74593;SDS011;63097;51.872;4.460;2023-08-21T12:50:39;6.67;;;1.17;;
74593;SDS011;63097;51.872;4.460;2023-08-21T12:53:05;2.35;;;0.55;;
74593;SDS011;63097;51.872;4.460;2023-08-21T12:55:30;5.27;;;0.60;;
74593;SDS011;63097;51.872;4.460;2023-08-21T12:57:56;5.68;;;0.90;;
74593;SDS011;63097;51.872;4.460;2023-08-21T13:00:21;4.30;;;0.70;;
74593;SDS011;63097;51.872;4.460;2023-08-21T13:02:47;4.50;;;0.70;;
74593;SDS011;63097;51.872;4.460;2023-08-21T13:05:13;2.70;;;0.70;;
74593;SDS011;63097;51.872;4.460;2023-08-21T13:07:38;9.73;;;0.90;;
74593;SDS011;63097;51.872;4.460;2023-08-21T13:10:03;3.87;;;0.77;;
74593;SDS011;63097;51.872;4.460;2023-08-21T13:12:29;8.30;;;1.13;;
74593;SDS011;63097;51.872;4.460;2023-08-21T13:14:54;4.23;;;0.67;;
74593;SDS011;63097;51.872;4.460;2023-08-21T13:17:19;5.70;;;0.80;;
74593;SDS011;63097;51.872;4.460;2023-08-21T13:19:45;3.93;;;0.70;;
74593;SDS011;63097;51.872;4.460;2023-08-21T13:22:10;3.83;;;0.70;;
74593;SDS011;63097;51.872;4.460;2023-08-21T13:24:35;6.90;;;1.03;;
74593;SDS011;63097;51.872;4.460;2023-08-21T13:27:01;6.30;;;0.60;;
74593;SDS011;63097;51.872;4.460;2023-08-21T13:29:26;8.70;;;1.33;;
74593;SDS011;63097;51.872;4.460;2023-08-21T13:31:51;13.25;;;1.15;;
74593;SDS011;63097;51.872;4.460;2023-08-21T13:34:17;3.75;;;0.90;;
74593;SDS011;63097;51.872;4.460;2023-08-21T13:36:42;7.07;;;1.20;;
74593;SDS011;63097;51.872;4.460;2023-08-21T13:39:07;5.37;;;0.77;;
74593;SDS011;63097;51.872;4.460;2023-08-21T13:41:33;4.43;;;0.80;;
74593;SDS011;63097;51.872;4.460;2023-08-21T13:43:58;5.73;;;0.90;;
74593;SDS011;63097;51.872;4.460;2023-08-21T13:46:23;6.03;;;0.80;;
74593;SDS011;63097;51.872;4.460;2023-08-21T13:48:48;9.97;;;1.00;;
74593;SDS011;63097;51.872;4.460;2023-08-21T13:51:14;10.40;;;1.00;;
74593;SDS011;63097;51.872;4.460;2023-08-21T13:53:39;3.22;;;0.70;;
74593;SDS011;63097;51.872;4.460;2023-08-21T13:56:05;5.77;;;0.97;;
74593;SDS011;63097;51.872;4.460;2023-08-21T13:58:30;5.33;;;0.80;;
74593;SDS011;63097;51.872;4.460;2023-08-21T14:00:55;12.03;;;0.77;;
74593;SDS011;63097;51.872;4.460;2023-08-21T14:03:21;3.70;;;0.70;;
74593;SDS011;63097;51.872;4.460;2023-08-21T14:05:46;5.27;;;0.97;;
74593;SDS011;63097;51.872;4.460;2023-08-21T14:08:11;4.38;;;0.80;;
74593;SDS011;63097;51.872;4.460;2023-08-21T14:10:37;6.67;;;0.80;;
74593;SDS011;63097;51.872;4.460;2023-08-21T14:13:02;5.30;;;0.77;;
74593;SDS011;63097;51.872;4.460;2023-08-21T14:15:30;9.07;;;1.10;;
74593;SDS011;63097;51.872;4.460;2023-08-21T14:17:56;5.67;;;0.97;;
74593;SDS011;63097;51.872;4.460;2023-08-21T14:20:21;4.67;;;0.80;;
74593;SDS011;63097;51.872;4.460;2023-08-21T14:22:46;6.60;;;0.93;;
74593;SDS011;63097;51.872;4.460;2023-08-21T14:25:12;11.20;;;1.10;;
74593;SDS011;63097;51.872;4.460;2023-08-21T14:27:37;6.83;;;1.07;;
74593;SDS011;63097;51.872;4.460;2023-08-21T14:30:03;5.77;;;1.10;;
74593;SDS011;63097;51.872;4.460;2023-08-21T14:32:29;6.50;;;1.40;;
74593;SDS011;63097;51.872;4.460;2023-08-21T14:34:54;8.40;;;1.33;;
74593;SDS011;63097;51.872;4.460;2023-08-21T14:37:20;10.87;;;1.00;;
74593;SDS011;63097;51.872;4.460;2023-08-21T14:39:46;14.70;;;1.20;;
74593;SDS011;63097;51.872;4.460;2023-08-21T14:42:11;8.95;;;1.00;;
74593;SDS011;63097;51.872;4.460;2023-08-21T14:44:36;12.23;;;1.17;;